Time;durP1;ratioP1;P1;durP2;ratioP2;P2;SDS_P1;SDS_P2;PMS_P1;PMS_P2;Temp;Humidity;BMP_temperature;BMP_pressure;BME280_temperature;BME280_humidity;BME280_pressure;Samples;Min_cycle;Max_cycle;Signal;HPM_P1;HPM_P2
2022/04/11 00:02:17;;;;;;;4.65;2.28;;;;;;;;;;4969076;28;20027;-75
2022/04/11 00:04:43;;;;;;;5.68;3.45;;;;;;;;;;4969406;28;20027;-74
2022/04/11 00:07:08;;;;;;;7.25;4.28;;;;;;;;;;4967934;28;20409;-74
2022/04/11 00:09:34;;;;;;;6.78;4.35;;;;;;;;;;4969121;28;20031;-74
2022/04/11 00:11:59;;;;;;;9.55;5.20;;;;;;;;;;4962568;28;20030;-74
2022/04/11 00:14:24;;;;;;;13.23;7.57;;;;;;;;;;4959727;28;20035;-75
2022/04/11 00:16:50;;;;;;;9.85;5.35;;;;;;;;;;4967179;28;20042;-74
2022/04/11 00:19:15;;;;;;;7.30;4.18;;;;;;;;;;4967168;28;20019;-76
2022/04/11 00:21:41;;;;;;;6.85;4.40;;;;;;;;;;4969818;28;20042;-75
2022/04/11 00:24:06;;;;;;;9.75;5.85;;;;;;;;;;4967857;28;20023;-75
2022/04/11 00:26:31;;;;;;;10.27;6.63;;;;;;;;;;4967273;28;20055;-76
2022/04/11 00:28:57;;;;;;;8.02;4.63;;;;;;;;;;4967404;28;20027;-76
2022/04/11 00:31:22;;;;;;;14.32;7.95;;;;;;;;;;4968018;28;20038;-74
2022/04/11 00:33:48;;;;;;;9.70;5.95;;;;;;;;;;4966119;28;20027;-74
2022/04/11 00:36:13;;;;;;;5.95;3.63;;;;;;;;;;4965299;28;20331;-74
2022/04/11 00:38:38;;;;;;;9.32;5.50;;;;;;;;;;4965466;28;20058;-74
2022/04/11 00:41:04;;;;;;;10.80;6.72;;;;;;;;;;4967350;28;20400;-75
2022/04/11 00:43:30;;;;;;;12.82;6.22;;;;;;;;;;4956041;28;20057;-77
2022/04/11 00:45:56;;;;;;;13.52;7.03;;;;;;;;;;4966660;28;20023;-76
2022/04/11 00:48:21;;;;;;;11.27;6.22;;;;;;;;;;4968722;28;20363;-74
2022/04/11 00:50:47;;;;;;;12.00;6.60;;;;;;;;;;4968325;28;20039;-74
2022/04/11 00:53:12;;;;;;;16.63;7.18;;;;;;;;;;4966067;28;20130;-74
2022/04/11 00:55:37;;;;;;;11.93;7.47;;;;;;;;;;4977735;28;20126;-75
2022/04/11 00:58:09;;;;;;;9.98;6.20;;;;;;;;;;4967526;28;20098;-73
2022/04/11 01:00:36;;;;;;;14.55;7.90;;;;;;;;;;4954970;28;20085;-74
2022/04/11 01:03:03;;;;;;;13.90;6.68;;;;;;;;;;4956884;28;20097;-76
2022/04/11 01:05:28;;;;;;;14.55;6.50;;;;;;;;;;4963811;28;20090;-76
2022/04/11 01:07:55;;;;;;;11.20;6.43;;;;;;;;;;4959917;28;20034;-77
2022/04/11 01:10:21;;;;;;;8.55;5.15;;;;;;;;;;4966562;28;20085;-77
2022/04/11 01:12:46;;;;;;;7.97;5.15;;;;;;;;;;4966661;28;20401;-76
2022/04/11 01:15:12;;;;;;;9.60;6.55;;;;;;;;;;4967207;28;20479;-76
2022/04/11 01:17:38;;;;;;;9.20;5.20;;;;;;;;;;4966658;28;20438;-76
2022/04/11 01:20:07;;;;;;;8.30;5.38;;;;;;;;;;4965666;28;20014;-75
2022/04/11 01:22:32;;;;;;;10.30;6.87;;;;;;;;;;4967430;28;20023;-75
2022/04/11 01:24:57;;;;;;;15.20;8.80;;;;;;;;;;4966009;28;20034;-75
2022/04/11 01:27:24;;;;;;;16.80;9.85;;;;;;;;;;4967215;28;20458;-75
2022/04/11 01:29:50;;;;;;;17.60;9.63;;;;;;;;;;4966082;28;20076;-79
2022/04/11 01:32:15;;;;;;;22.85;10.63;;;;;;;;;;4965756;28;20409;-75
2022/04/11 01:34:40;;;;;;;24.00;10.63;;;;;;;;;;4966146;28;20026;-80
2022/04/11 01:37:06;;;;;;;21.65;12.07;;;;;;;;;;4965935;28;20096;-75
2022/04/11 01:39:31;;;;;;;19.30;11.55;;;;;;;;;;4966033;28;20843;-77
2022/04/11 01:41:56;;;;;;;15.95;10.98;;;;;;;;;;4965307;28;20034;-75
2022/04/11 01:44:22;;;;;;;15.82;10.40;;;;;;;;;;4967225;28;20022;-77
2022/04/11 01:46:50;;;;;;;16.27;9.55;;;;;;;;;;4966376;28;20066;-75
2022/04/11 01:49:15;;;;;;;14.43;7.82;;;;;;;;;;4953446;28;20117;-76
2022/04/11 01:51:40;;;;;;;9.90;6.88;;;;;;;;;;4966352;28;20442;-80
2022/04/11 01:54:06;;;;;;;8.95;6.93;;;;;;;;;;4961103;28;20034;-76
2022/04/11 01:56:31;;;;;;;7.43;6.43;;;;;;;;;;4960139;28;20493;-75
2022/04/11 01:59:13;;;;;;;8.85;6.53;;;;;;;;;;5126649;27;20414;-75
2022/04/11 02:01:38;;;;;;;9.40;6.82;;;;;;;;;;5131471;27;20054;-76
2022/04/11 02:04:03;;;;;;;9.75;6.85;;;;;;;;;;5140198;27;20085;-76
2022/04/11 02:06:29;;;;;;;13.38;8.20;;;;;;;;;;5139028;27;20031;-77
2022/04/11 02:08:54;;;;;;;11.90;7.10;;;;;;;;;;5139365;27;20027;-76
2022/04/11 02:11:19;;;;;;;11.40;8.13;;;;;;;;;;5140517;27;20034;-75
2022/04/11 02:13:45;;;;;;;9.40;7.00;;;;;;;;;;5135929;27;20019;-76
2022/04/11 02:16:10;;;;;;;10.13;7.13;;;;;;;;;;5126775;27;20033;-74
2022/04/11 02:18:35;;;;;;;11.65;7.65;;;;;;;;;;5134224;27;20117;-75
2022/04/11 02:21:01;;;;;;;11.15;8.25;;;;;;;;;;5138926;27;20031;-75
2022/04/11 02:23:26;;;;;;;13.57;8.23;;;;;;;;;;5138769;27;20031;-75
2022/04/11 02:25:51;;;;;;;13.48;8.40;;;;;;;;;;5132585;27;20023;-75
2022/04/11 02:28:17;;;;;;;13.82;7.85;;;;;;;;;;5134697;27;20030;-77
2022/04/11 02:30:42;;;;;;;12.27;7.85;;;;;;;;;;5139268;27;20126;-76
2022/04/11 02:33:08;;;;;;;11.23;7.88;;;;;;;;;;5138959;27;20038;-74
2022/04/11 02:35:33;;;;;;;13.23;7.90;;;;;;;;;;5139386;27;20031;-76
2022/04/11 02:37:59;;;;;;;13.30;8.48;;;;;;;;;;5138562;27;20384;-73
2022/04/11 02:40:24;;;;;;;22.10;14.55;;;;;;;;;;5130126;27;20027;-73
2022/04/11 02:42:49;;;;;;;23.63;15.60;;;;;;;;;;5134861;27;20023;-74
2022/04/11 02:45:15;;;;;;;32.05;17.65;;;;;;;;;;5139170;27;20399;-74
2022/04/11 02:47:40;;;;;;;17.75;10.93;;;;;;;;;;5138709;27;20111;-73
2022/04/11 02:50:06;;;;;;;18.55;10.63;;;;;;;;;;5138580;27;20105;-78
2022/04/11 02:52:32;;;;;;;22.42;11.38;;;;;;;;;;5139026;27;20087;-75
2022/04/11 02:54:57;;;;;;;21.80;12.85;;;;;;;;;;5138392;27;21220;-74
2022/04/11 02:57:23;;;;;;;14.27;7.38;;;;;;;;;;5139457;27;20073;-73
2022/04/11 02:59:49;;;;;;;17.67;9.98;;;;;;;;;;5136696;27;20035;-75
2022/04/11 03:02:14;;;;;;;15.88;8.63;;;;;;;;;;5138445;27;20114;-74
2022/04/11 03:04:39;;;;;;;20.38;9.30;;;;;;;;;;5135851;27;20033;-76
2022/04/11 03:07:05;;;;;;;24.92;12.38;;;;;;;;;;5130913;27;20126;-78
2022/04/11 03:09:30;;;;;;;14.75;9.27;;;;;;;;;;5130624;27;20073;-77
2022/04/11 03:11:56;;;;;;;15.57;7.85;;;;;;;;;;5125265;27;20422;-77
2022/04/11 03:14:22;;;;;;;12.20;6.78;;;;;;;;;;5124395;27;20031;-76
2022/04/11 03:16:48;;;;;;;16.17;8.65;;;;;;;;;;5125370;27;20027;-74
2022/04/11 03:19:13;;;;;;;15.40;8.40;;;;;;;;;;5124973;27;20369;-74
2022/04/11 03:21:38;;;;;;;20.38;9.82;;;;;;;;;;5125151;27;21134;-74
2022/04/11 03:24:04;;;;;;;16.45;8.32;;;;;;;;;;5125235;27;20092;-74
2022/04/11 03:26:29;;;;;;;18.80;8.23;;;;;;;;;;5124840;27;20103;-74
2022/04/11 03:28:54;;;;;;;15.43;7.80;;;;;;;;;;5118805;27;20054;-74
2022/04/11 03:31:20;;;;;;;14.63;8.32;;;;;;;;;;5110788;27;20514;-76
2022/04/11 03:33:45;;;;;;;16.95;7.95;;;;;;;;;;5120935;27;20069;-77
2022/04/11 03:36:10;;;;;;;12.18;7.38;;;;;;;;;;5124870;27;20429;-74
2022/04/11 03:38:36;;;;;;;13.45;7.70;;;;;;;;;;5119312;27;20023;-76
2022/04/11 03:41:01;;;;;;;15.85;8.38;;;;;;;;;;5109939;27;20512;-73
2022/04/11 03:43:27;;;;;;;13.10;7.25;;;;;;;;;;5113867;27;20031;-74
2022/04/11 03:45:52;;;;;;;12.48;7.82;;;;;;;;;;5110473;27;20457;-74
2022/04/11 03:48:17;;;;;;;11.02;7.75;;;;;;;;;;5110605;27;20360;-76
2022/04/11 03:50:43;;;;;;;10.65;8.00;;;;;;;;;;5112228;27;20116;-77
2022/04/11 03:53:08;;;;;;;12.95;7.93;;;;;;;;;;5122238;27;20019;-74
2022/04/11 03:55:34;;;;;;;12.82;8.30;;;;;;;;;;5115367;27;20038;-76
2022/04/11 03:57:59;;;;;;;12.68;9.63;;;;;;;;;;5123792;27;20095;-74
2022/04/11 04:00:24;;;;;;;14.75;9.75;;;;;;;;;;5124726;27;20027;-74
2022/04/11 04:02:50;;;;;;;20.10;11.52;;;;;;;;;;5124697;27;20054;-74
2022/04/11 04:05:15;;;;;;;17.65;9.88;;;;;;;;;;5124325;27;20027;-74
2022/04/11 04:07:41;;;;;;;14.95;10.02;;;;;;;;;;5124342;27;20038;-74
2022/04/11 04:10:07;;;;;;;16.88;10.98;;;;;;;;;;5123862;27;20028;-74
2022/04/11 04:12:32;;;;;;;12.35;8.80;;;;;;;;;;5124639;27;20087;-75
2022/04/11 04:14:57;;;;;;;12.27;9.60;;;;;;;;;;5118840;27;20029;-74
2022/04/11 04:17:23;;;;;;;22.10;15.05;;;;;;;;;;5115072;27;20023;-74
2022/04/11 04:19:48;;;;;;;18.23;12.45;;;;;;;;;;5122167;27;20033;-75
2022/04/11 04:22:14;;;;;;;19.05;14.93;;;;;;;;;;5122675;27;20034;-74
2022/04/11 04:24:40;;;;;;;19.55;11.93;;;;;;;;;;5123958;27;20038;-73
2022/04/11 04:27:06;;;;;;;17.58;10.98;;;;;;;;;;5119380;27;20034;-72
2022/04/11 04:29:31;;;;;;;17.63;11.40;;;;;;;;;;5110282;27;20027;-72
2022/04/11 04:31:57;;;;;;;11.13;8.20;;;;;;;;;;5109001;27;20124;-78
2022/04/11 04:34:22;;;;;;;13.00;8.93;;;;;;;;;;5109318;27;20019;-74
2022/04/11 04:36:48;;;;;;;12.40;8.70;;;;;;;;;;5109447;27;20015;-73
2022/04/11 04:39:13;;;;;;;11.82;9.68;;;;;;;;;;5109827;27;20390;-75
2022/04/11 04:41:39;;;;;;;14.43;9.48;;;;;;;;;;5110950;27;20023;-75
2022/04/11 04:44:05;;;;;;;14.40;10.00;;;;;;;;;;5114341;27;20122;-76
2022/04/11 04:46:31;;;;;;;15.95;11.02;;;;;;;;;;5117872;27;20106;-78
2022/04/11 04:48:57;;;;;;;16.20;10.93;;;;;;;;;;5122244;27;20469;-76
2022/04/11 04:51:22;;;;;;;12.32;8.25;;;;;;;;;;5121276;27;20027;-74
2022/04/11 04:53:48;;;;;;;12.63;8.90;;;;;;;;;;5119769;27;20794;-75
2022/04/11 04:56:13;;;;;;;14.65;9.88;;;;;;;;;;5120892;27;20399;-75
2022/04/11 04:58:38;;;;;;;10.88;8.07;;;;;;;;;;5120848;27;20055;-74
2022/04/11 05:01:04;;;;;;;13.18;9.73;;;;;;;;;;5121013;27;20034;-75
2022/04/11 05:03:29;;;;;;;17.20;10.75;;;;;;;;;;5121840;27;20023;-74
2022/04/11 05:05:55;;;;;;;11.23;9.30;;;;;;;;;;5122319;27;20072;-74
2022/04/11 05:08:21;;;;;;;16.90;12.77;;;;;;;;;;5111833;27;20080;-76
2022/04/11 05:10:46;;;;;;;19.08;13.02;;;;;;;;;;5122120;27;20422;-75
2022/04/11 05:13:11;;;;;;;15.13;10.70;;;;;;;;;;5122511;27;20038;-75
2022/04/11 05:15:37;;;;;;;13.70;8.65;;;;;;;;;;5112508;27;20019;-78
2022/04/11 05:18:02;;;;;;;17.10;11.20;;;;;;;;;;5113016;27;20107;-75
2022/04/11 05:20:27;;;;;;;19.02;11.07;;;;;;;;;;5121512;27;20073;-75
2022/04/11 05:22:53;;;;;;;12.15;8.85;;;;;;;;;;5122331;27;20437;-74
2022/04/11 05:25:18;;;;;;;16.83;10.80;;;;;;;;;;5120640;27;20086;-72
2022/04/11 05:27:43;;;;;;;11.32;8.98;;;;;;;;;;5121850;27;20350;-73
2022/04/11 05:30:09;;;;;;;13.27;9.93;;;;;;;;;;5121635;27;20025;-72
2022/04/11 05:32:34;;;;;;;14.88;11.18;;;;;;;;;;5120680;27;20030;-72
2022/04/11 05:35:00;;;;;;;24.75;16.30;;;;;;;;;;5121389;27;20035;-73
2022/04/11 05:37:25;;;;;;;19.00;12.77;;;;;;;;;;5121974;27;20129;-76
2022/04/11 05:39:50;;;;;;;16.80;12.98;;;;;;;;;;5120966;27;20452;-73
2022/04/11 05:42:16;;;;;;;18.48;12.55;;;;;;;;;;5114732;27;20037;-74
2022/04/11 05:44:41;;;;;;;13.55;10.77;;;;;;;;;;5114481;27;20492;-69
2022/04/11 05:47:06;;;;;;;15.73;12.45;;;;;;;;;;5119002;27;20480;-71
2022/04/11 05:49:32;;;;;;;15.98;11.77;;;;;;;;;;5101980;27;20092;-72
2022/04/11 05:51:57;;;;;;;23.50;16.23;;;;;;;;;;5112044;27;20097;-71
2022/04/11 05:54:22;;;;;;;21.45;15.55;;;;;;;;;;5114053;27;20019;-71
2022/04/11 05:56:48;;;;;;;22.45;17.65;;;;;;;;;;5107965;28;20049;-70
2022/04/11 05:59:13;;;;;;;37.60;25.15;;;;;;;;;;5105274;28;20035;-72
2022/04/11 06:01:40;;;;;;;31.40;21.27;;;;;;;;;;5107087;28;20062;-71
2022/04/11 06:04:05;;;;;;;24.20;16.63;;;;;;;;;;5106855;28;20019;-70
2022/04/11 06:06:31;;;;;;;19.00;16.45;;;;;;;;;;5108768;28;20072;-71
2022/04/11 06:08:56;;;;;;;23.35;16.73;;;;;;;;;;5109248;28;20495;-70
2022/04/11 06:11:21;;;;;;;24.80;17.58;;;;;;;;;;5110119;27;23463;-70
2022/04/11 06:13:47;;;;;;;37.90;25.33;;;;;;;;;;5118102;28;20035;-70
2022/04/11 06:16:12;;;;;;;24.63;20.02;;;;;;;;;;5118355;28;20465;-70
2022/04/11 06:18:38;;;;;;;23.05;16.75;;;;;;;;;;5119574;28;20373;-71
2022/04/11 06:21:03;;;;;;;22.88;17.92;;;;;;;;;;5120209;28;20035;-71
2022/04/11 06:23:29;;;;;;;18.65;15.20;;;;;;;;;;5118945;28;20033;-73
2022/04/11 06:25:54;;;;;;;23.17;16.83;;;;;;;;;;5119987;28;20023;-71
2022/04/11 06:28:19;;;;;;;21.83;16.75;;;;;;;;;;5100941;28;20088;-71
2022/04/11 06:30:44;;;;;;;36.97;22.85;;;;;;;;;;5119373;28;20019;-72
2022/04/11 06:33:10;;;;;;;32.00;18.80;;;;;;;;;;5102348;28;20456;-72
2022/04/11 06:35:35;;;;;;;43.45;25.92;;;;;;;;;;5120466;28;20019;-70
2022/04/11 06:38:01;;;;;;;28.50;18.63;;;;;;;;;;5119988;28;20503;-71
2022/04/11 06:40:26;;;;;;;28.27;20.55;;;;;;;;;;5120053;28;20114;-72
2022/04/11 06:42:51;;;;;;;24.25;18.10;;;;;;;;;;5120113;27;20035;-71
2022/04/11 06:45:16;;;;;;;29.08;20.23;;;;;;;;;;5122873;27;20474;-75
2022/04/11 06:47:43;;;;;;;22.92;16.20;;;;;;;;;;5124753;27;20417;-72
2022/04/11 06:50:08;;;;;;;19.38;13.93;;;;;;;;;;5123889;27;20115;-73
2022/04/11 06:52:33;;;;;;;35.58;17.77;;;;;;;;;;5125641;27;20106;-73
2022/04/11 06:54:59;;;;;;;25.80;17.63;;;;;;;;;;5123352;27;20558;-73
2022/04/11 06:57:25;;;;;;;25.42;16.90;;;;;;;;;;5121781;27;20070;-73
2022/04/11 06:59:50;;;;;;;34.00;19.60;;;;;;;;;;5116158;27;20338;-71
2022/04/11 07:02:16;;;;;;;26.55;17.50;;;;;;;;;;5118922;27;20075;-72
2022/04/11 07:04:42;;;;;;;30.05;17.48;;;;;;;;;;5115694;27;20019;-72
2022/04/11 07:07:07;;;;;;;32.05;21.10;;;;;;;;;;5112554;27;20022;-74
2022/04/11 07:09:32;;;;;;;21.27;15.63;;;;;;;;;;5111272;27;20019;-73
2022/04/11 07:11:58;;;;;;;30.10;17.80;;;;;;;;;;5111497;27;20599;-76
2022/04/11 07:14:23;;;;;;;20.05;13.02;;;;;;;;;;5110582;27;20022;-73
2022/04/11 07:16:52;;;;;;;22.83;14.88;;;;;;;;;;5111074;27;20039;-72
2022/04/11 07:19:18;;;;;;;12.93;10.95;;;;;;;;;;5109899;27;20046;-72
2022/04/11 07:21:46;;;;;;;23.73;15.85;;;;;;;;;;5092291;27;20418;-70
2022/04/11 07:24:11;;;;;;;14.20;11.38;;;;;;;;;;5110652;27;20038;-72
2022/04/11 07:26:36;;;;;;;25.15;15.98;;;;;;;;;;5111905;27;20345;-76
2022/04/11 07:29:01;;;;;;;28.08;17.77;;;;;;;;;;5115796;27;20126;-71
2022/04/11 07:31:27;;;;;;;17.17;12.65;;;;;;;;;;5123329;27;20019;-75
2022/04/11 07:33:52;;;;;;;19.05;13.07;;;;;;;;;;5114038;27;20083;-71
2022/04/11 07:36:18;;;;;;;13.93;10.85;;;;;;;;;;5118756;27;20020;-76
2022/04/11 07:38:43;;;;;;;14.30;10.27;;;;;;;;;;5110122;27;20500;-73
2022/04/11 07:41:08;;;;;;;14.82;10.73;;;;;;;;;;5110230;27;20046;-74
2022/04/11 07:43:34;;;;;;;12.65;10.00;;;;;;;;;;5110751;27;20031;-77
2022/04/11 07:46:01;;;;;;;14.50;11.30;;;;;;;;;;5110814;27;20053;-72
2022/04/11 07:48:26;;;;;;;14.15;10.70;;;;;;;;;;5110416;27;20455;-74
2022/04/11 07:50:51;;;;;;;15.65;11.57;;;;;;;;;;5109811;27;20102;-72
2022/04/11 07:53:17;;;;;;;18.60;12.98;;;;;;;;;;5110537;27;20098;-72
2022/04/11 07:55:43;;;;;;;12.60;9.68;;;;;;;;;;5110317;27;20027;-74
2022/04/11 07:58:08;;;;;;;22.98;14.52;;;;;;;;;;5110894;27;20051;-72
2022/04/11 08:00:34;;;;;;;16.85;11.65;;;;;;;;;;5110654;27;20027;-72
2022/04/11 08:03:00;;;;;;;15.80;10.23;;;;;;;;;;5110913;27;20026;-72
2022/04/11 08:05:25;;;;;;;15.02;10.52;;;;;;;;;;5110098;27;20019;-73
2022/04/11 08:07:51;;;;;;;20.20;13.35;;;;;;;;;;5108791;27;20027;-72
2022/04/11 08:10:16;;;;;;;17.63;11.70;;;;;;;;;;5109291;27;20050;-74
2022/04/11 08:12:52;;;;;;;12.05;9.00;;;;;;;;;;5110054;27;20034;-75
2022/04/11 08:15:18;;;;;;;15.25;10.68;;;;;;;;;;5111264;27;20110;-72
2022/04/11 08:17:43;;;;;;;15.07;11.02;;;;;;;;;;5109543;27;20050;-74
2022/04/11 08:20:09;;;;;;;10.05;8.02;;;;;;;;;;5109246;27;20368;-73
2022/04/11 08:22:34;;;;;;;9.60;7.68;;;;;;;;;;5116054;27;20027;-73
2022/04/11 08:24:59;;;;;;;10.60;8.82;;;;;;;;;;5121541;27;20030;-72
2022/04/11 08:27:25;;;;;;;11.70;8.68;;;;;;;;;;5113361;27;20113;-72
2022/04/11 08:29:50;;;;;;;11.25;7.85;;;;;;;;;;5123694;27;20434;-72
2022/04/11 08:32:17;;;;;;;20.52;12.27;;;;;;;;;;5121681;27;20027;-72
2022/04/11 08:34:43;;;;;;;22.33;12.50;;;;;;;;;;5122982;27;20045;-74
2022/04/11 08:37:08;;;;;;;13.60;9.15;;;;;;;;;;5122987;27;20418;-75
2022/04/11 08:39:33;;;;;;;12.60;8.90;;;;;;;;;;5121888;27;20015;-73
2022/04/11 08:42:00;;;;;;;12.38;8.60;;;;;;;;;;5116578;27;20121;-74
2022/04/11 08:44:26;;;;;;;15.93;11.32;;;;;;;;;;5108847;27;20094;-73
2022/04/11 08:46:52;;;;;;;19.15;12.95;;;;;;;;;;5108367;27;20046;-71
2022/04/11 08:49:18;;;;;;;18.70;11.40;;;;;;;;;;5107679;27;20019;-73
2022/04/11 08:51:43;;;;;;;14.20;10.45;;;;;;;;;;5109444;27;20076;-76
2022/04/11 08:54:08;;;;;;;17.05;13.45;;;;;;;;;;5109183;27;20084;-73
2022/04/11 08:56:34;;;;;;;14.50;10.18;;;;;;;;;;5109163;27;20027;-74
2022/04/11 08:59:00;;;;;;;13.93;9.65;;;;;;;;;;5108720;27;20058;-71
2022/04/11 09:01:25;;;;;;;9.85;7.85;;;;;;;;;;5108585;27;20499;-71
2022/04/11 09:03:50;;;;;;;19.08;11.85;;;;;;;;;;5107695;27;20039;-74
2022/04/11 09:06:18;;;;;;;11.85;8.00;;;;;;;;;;5108000;27;20015;-76
2022/04/11 09:08:55;;;;;;;12.05;8.27;;;;;;;;;;5108211;27;20161;-78
2022/04/11 09:11:30;;;;;;;12.18;9.38;;;;;;;;;;5108805;27;20031;-75
2022/04/11 09:13:55;;;;;;;11.65;8.52;;;;;;;;;;5108859;27;20349;-73
2022/04/11 09:16:21;;;;;;;15.20;9.15;;;;;;;;;;5109582;27;20018;-71
2022/04/11 09:18:48;;;;;;;17.42;11.15;;;;;;;;;;5108249;27;20693;-76
2022/04/11 09:21:13;;;;;;;11.52;8.02;;;;;;;;;;5109550;27;20114;-72
2022/04/11 09:23:38;;;;;;;13.80;9.93;;;;;;;;;;5108987;27;20152;-73
2022/04/11 09:26:19;;;;;;;16.00;9.90;;;;;;;;;;5108707;27;20034;-73
2022/04/11 09:28:58;;;;;;;10.68;6.72;;;;;;;;;;5108751;27;20035;-74
2022/04/11 09:31:23;;;;;;;13.13;9.73;;;;;;;;;;5109305;27;20027;-73
2022/04/11 09:33:48;;;;;;;8.52;5.82;;;;;;;;;;5108992;27;20019;-79
2022/04/11 09:36:15;;;;;;;13.20;8.63;;;;;;;;;;5109854;27;20023;-73
2022/04/11 09:38:41;;;;;;;7.60;6.07;;;;;;;;;;5108564;27;20046;-76
2022/04/11 09:41:06;;;;;;;11.93;8.45;;;;;;;;;;5125808;27;20027;-74
2022/04/11 09:43:33;;;;;;;8.48;6.20;;;;;;;;;;5128432;27;20152;-75
2022/04/11 09:45:59;;;;;;;7.75;5.47;;;;;;;;;;5123925;27;20062;-77
2022/04/11 09:48:32;;;;;;;6.40;5.60;;;;;;;;;;5115205;27;20023;-77
2022/04/11 09:51:01;;;;;;;15.52;7.03;;;;;;;;;;5109327;27;20015;-74
2022/04/11 09:53:33;;;;;;;7.93;5.97;;;;;;;;;;5108267;27;20023;-77
2022/04/11 09:56:01;;;;;;;6.47;4.90;;;;;;;;;;5108764;27;20022;-73
2022/04/11 09:58:27;;;;;;;7.38;4.85;;;;;;;;;;5108561;28;20076;-77
2022/04/11 10:00:53;;;;;;;9.13;5.70;;;;;;;;;;5108414;28;20015;-75
2022/04/11 10:03:22;;;;;;;4.72;4.22;;;;;;;;;;5109066;28;20335;-74
2022/04/11 10:05:49;;;;;;;7.40;5.65;;;;;;;;;;5108803;28;20034;-75
2022/04/11 10:08:14;;;;;;;5.75;4.85;;;;;;;;;;5109072;28;20054;-78
2022/04/11 10:10:41;;;;;;;7.68;5.95;;;;;;;;;;5109408;28;20079;-74
2022/04/11 10:13:07;;;;;;;15.88;9.63;;;;;;;;;;5107939;28;20031;-72
2022/04/11 10:15:32;;;;;;;15.55;9.35;;;;;;;;;;5114398;28;20035;-71
2022/04/11 10:17:58;;;;;;;7.15;5.50;;;;;;;;;;5121420;27;20318;-72
2022/04/11 10:20:27;;;;;;;9.65;7.05;;;;;;;;;;5125409;27;20062;-75
2022/04/11 10:23:11;;;;;;;7.25;5.43;;;;;;;;;;5126394;27;20027;-74
2022/04/11 10:25:49;;;;;;;10.90;7.38;;;;;;;;;;5123626;27;20019;-73
2022/04/11 10:28:16;;;;;;;6.22;5.05;;;;;;;;;;5125898;27;20042;-73
2022/04/11 10:30:41;;;;;;;8.65;7.63;;;;;;;;;;5125091;27;20023;-72
2022/04/11 10:33:07;;;;;;;13.60;9.10;;;;;;;;;;5124415;27;20042;-73
2022/04/11 10:35:33;;;;;;;5.18;4.35;;;;;;;;;;5113234;27;20019;-72
2022/04/11 10:37:59;;;;;;;8.25;6.85;;;;;;;;;;5114177;27;20046;-72
2022/04/11 10:40:24;;;;;;;8.00;6.00;;;;;;;;;;5117856;27;20049;-74
2022/04/11 10:45:28;;;;;;;9.90;7.55;;;;;;;;;;5124895;27;20327;-76
2022/04/11 10:47:53;;;;;;;8.60;6.13;;;;;;;;;;5107018;27;20406;-74
2022/04/11 10:50:19;;;;;;;9.52;5.85;;;;;;;;;;5115031;27;20052;-72
2022/04/11 10:52:44;;;;;;;7.95;4.90;;;;;;;;;;5122016;27;20098;-72
2022/04/11 10:55:11;;;;;;;4.93;4.43;;;;;;;;;;5123122;27;20409;-73
2022/04/11 10:57:39;;;;;;;7.50;5.80;;;;;;;;;;5123518;27;20521;-77
2022/04/11 11:00:15;;;;;;;9.35;6.88;;;;;;;;;;5124324;27;20058;-73
2022/04/11 11:02:52;;;;;;;8.55;5.88;;;;;;;;;;5124028;27;20034;-73
2022/04/11 11:05:27;;;;;;;4.13;3.63;;;;;;;;;;5124487;27;20887;-73
2022/04/11 11:08:14;;;;;;;4.00;3.53;;;;;;;;;;5122892;27;20512;-74
2022/04/11 11:10:44;;;;;;;3.92;3.40;;;;;;;;;;5122475;27;20024;-73
2022/04/11 11:13:30;;;;;;;5.82;4.57;;;;;;;;;;5123677;27;20023;-75
2022/04/11 11:15:56;;;;;;;6.28;4.55;;;;;;;;;;5123638;27;20034;-75
2022/04/11 11:18:22;;;;;;;6.35;3.90;;;;;;;;;;5124235;27;21103;-73
2022/04/11 11:20:57;;;;;;;7.63;4.63;;;;;;;;;;5123831;27;20030;-74
2022/04/11 11:23:25;;;;;;;5.70;4.30;;;;;;;;;;5123107;27;20030;-76
2022/04/11 11:25:51;;;;;;;10.02;5.38;;;;;;;;;;5124381;27;20030;-73
2022/04/11 11:28:16;;;;;;;12.27;8.07;;;;;;;;;;5123955;27;20031;-76
2022/04/11 11:30:42;;;;;;;5.70;5.10;;;;;;;;;;5123941;27;20421;-75
2022/04/11 11:33:08;;;;;;;11.10;5.85;;;;;;;;;;5124827;27;20027;-73
2022/04/11 11:35:34;;;;;;;10.00;6.70;;;;;;;;;;5123450;27;20027;-72
2022/04/11 11:38:05;;;;;;;6.05;4.40;;;;;;;;;;5122284;27;20044;-75
2022/04/11 11:40:30;;;;;;;8.18;6.13;;;;;;;;;;5123438;27;20031;-73
2022/04/11 11:42:56;;;;;;;5.88;4.43;;;;;;;;;;5123847;27;20018;-76
2022/04/11 11:45:28;;;;;;;11.55;6.72;;;;;;;;;;5123684;27;20140;-72
2022/04/11 11:47:53;;;;;;;10.10;5.97;;;;;;;;;;5123429;27;20031;-73
2022/04/11 11:50:18;;;;;;;7.88;5.25;;;;;;;;;;5121989;27;20024;-73
2022/04/11 11:52:57;;;;;;;4.95;3.70;;;;;;;;;;5121165;27;20034;-73
2022/04/11 11:55:22;;;;;;;6.40;4.47;;;;;;;;;;5121901;27;20126;-73
2022/04/11 11:58:01;;;;;;;5.70;3.70;;;;;;;;;;5123622;27;20143;-72
2022/04/11 12:00:32;;;;;;;6.67;4.00;;;;;;;;;;5122362;27;20026;-73
2022/04/11 12:05:42;;;;;;;3.40;2.70;;;;;;;;;;5123569;27;20045;-74
2022/04/11 12:08:08;;;;;;;4.20;3.03;;;;;;;;;;5122822;27;20361;-73
2022/04/11 12:10:34;;;;;;;4.53;2.90;;;;;;;;;;5123319;27;20830;-73
2022/04/11 12:12:59;;;;;;;5.72;3.47;;;;;;;;;;5124055;27;20106;-72
2022/04/11 12:15:29;;;;;;;5.50;3.65;;;;;;;;;;5123002;27;20047;-72
2022/04/11 12:18:00;;;;;;;6.78;4.05;;;;;;;;;;5122175;27;20453;-72
2022/04/11 12:20:28;;;;;;;5.13;3.67;;;;;;;;;;5123794;27;20101;-72
2022/04/11 12:23:05;;;;;;;6.93;4.68;;;;;;;;;;5121490;27;20122;-75
2022/04/11 12:25:31;;;;;;;13.45;7.75;;;;;;;;;;5121813;27;20027;-76
2022/04/11 12:28:15;;;;;;;13.00;7.75;;;;;;;;;;5122147;27;20027;-73
2022/04/11 12:30:44;;;;;;;5.82;3.92;;;;;;;;;;5121484;27;20043;-74
2022/04/11 12:33:10;;;;;;;6.55;4.60;;;;;;;;;;5121203;27;20122;-73
2022/04/11 12:35:36;;;;;;;7.57;5.07;;;;;;;;;;5122966;27;20122;-74
2022/04/11 12:38:07;;;;;;;11.43;7.15;;;;;;;;;;5121243;27;20037;-75
2022/04/11 12:40:45;;;;;;;17.55;9.98;;;;;;;;;;5121247;27;20045;-72
2022/04/11 12:43:13;;;;;;;12.35;7.10;;;;;;;;;;5122102;27;20015;-74
2022/04/11 12:45:39;;;;;;;10.07;6.05;;;;;;;;;;5122242;27;20042;-74
2022/04/11 12:48:05;;;;;;;14.02;9.20;;;;;;;;;;5121893;27;20355;-71
2022/04/11 12:50:31;;;;;;;17.95;11.60;;;;;;;;;;5122005;27;20042;-73
2022/04/11 12:52:56;;;;;;;8.18;5.97;;;;;;;;;;5122899;27;20027;-75
2022/04/11 12:55:23;;;;;;;12.30;8.52;;;;;;;;;;5122295;27;20096;-76
2022/04/11 12:57:58;;;;;;;11.55;7.30;;;;;;;;;;5121361;27;20055;-74
2022/04/11 13:00:24;;;;;;;6.35;4.63;;;;;;;;;;5122832;27;20102;-73
2022/04/11 13:02:52;;;;;;;7.75;5.82;;;;;;;;;;5122787;27;20118;-74
2022/04/11 13:05:18;;;;;;;15.25;9.02;;;;;;;;;;5122412;27;20080;-74
2022/04/11 13:07:46;;;;;;;24.42;14.07;;;;;;;;;;5122303;27;20035;-76
2022/04/11 13:10:11;;;;;;;19.88;12.05;;;;;;;;;;5121866;27;20087;-74
2022/04/11 13:12:37;;;;;;;19.02;12.73;;;;;;;;;;5121702;27;20011;-74
2022/04/11 13:15:02;;;;;;;17.70;9.98;;;;;;;;;;5119893;27;20056;-73
2022/04/11 13:20:11;;;;;;;12.50;7.30;;;;;;;;;;5114606;27;20065;-75
2022/04/11 13:22:37;;;;;;;7.75;5.30;;;;;;;;;;5099185;27;20059;-74
2022/04/11 13:25:03;;;;;;;4.15;3.08;;;;;;;;;;5121724;27;20035;-75
2022/04/11 13:27:28;;;;;;;8.80;5.47;;;;;;;;;;5121257;27;20026;-73
2022/04/11 13:29:54;;;;;;;13.93;8.00;;;;;;;;;;5110409;27;20023;-77
2022/04/11 13:32:19;;;;;;;6.50;3.42;;;;;;;;;;5112805;27;20019;-75
2022/04/11 13:34:44;;;;;;;4.60;2.95;;;;;;;;;;5107891;27;20069;-75
2022/04/11 13:37:10;;;;;;;8.80;5.22;;;;;;;;;;5110754;27;20098;-73
2022/04/11 13:39:35;;;;;;;9.27;5.72;;;;;;;;;;5120424;27;20091;-78
2022/04/11 13:42:00;;;;;;;9.20;5.43;;;;;;;;;;5121239;27;20094;-73
2022/04/11 13:44:26;;;;;;;14.00;8.57;;;;;;;;;;5121600;27;20127;-76
2022/04/11 13:46:51;;;;;;;13.80;10.40;;;;;;;;;;5121691;27;20395;-73
2022/04/11 13:49:18;;;;;;;15.70;8.45;;;;;;;;;;5109706;27;20031;-71
2022/04/11 13:51:43;;;;;;;161.93;69.03;;;;;;;;;;5107468;27;20032;-72
2022/04/11 13:54:09;;;;;;;9.30;4.80;;;;;;;;;;5107293;27;20438;-73
2022/04/11 13:56:35;;;;;;;10.20;5.82;;;;;;;;;;5108657;27;20027;-75
2022/04/11 13:59:00;;;;;;;5.55;3.92;;;;;;;;;;5120599;28;20108;-76
2022/04/11 14:01:26;;;;;;;7.32;4.20;;;;;;;;;;5120258;28;20666;-72
2022/04/11 14:03:51;;;;;;;15.20;7.28;;;;;;;;;;5120982;28;20015;-74
2022/04/11 14:06:17;;;;;;;5.18;3.70;;;;;;;;;;5109025;28;20363;-72
2022/04/11 14:08:42;;;;;;;12.48;6.80;;;;;;;;;;5108941;27;20477;-72
2022/04/11 14:11:08;;;;;;;7.65;4.47;;;;;;;;;;5118962;28;20040;-72
2022/04/11 14:13:34;;;;;;;12.68;6.65;;;;;;;;;;5119752;28;20413;-73
2022/04/11 14:16:00;;;;;;;22.33;12.52;;;;;;;;;;5120960;28;20078;-72
2022/04/11 14:18:25;;;;;;;20.88;10.98;;;;;;;;;;5121264;28;20055;-73
2022/04/11 14:20:51;;;;;;;12.00;7.28;;;;;;;;;;5120222;28;20031;-76
2022/04/11 14:23:18;;;;;;;7.18;4.57;;;;;;;;;;5121079;28;20446;-72
2022/04/11 14:25:44;;;;;;;9.43;6.22;;;;;;;;;;5120004;28;20056;-71
2022/04/11 14:28:09;;;;;;;14.43;9.40;;;;;;;;;;5120002;28;20027;-74
2022/04/11 14:30:35;;;;;;;8.75;5.65;;;;;;;;;;5120860;28;20114;-73
2022/04/11 14:33:01;;;;;;;11.45;6.95;;;;;;;;;;5119392;28;20787;-74